METAR Data
IDs: Format: Raw Decoded Include TAF

Data at: 1324 UTC 11 Dec 2018

Region: TOP
KATL 111252Z 31011KT 10SM CLR 01/M02 A3027 RMK AO2 SLP258 T00061017

KBOS 111254Z 32005KT 10SM FEW050 FEW110 M04/M12 A3020 RMK AO2 SLP225 T10391122

KBWI 111254Z 26003KT 8SM FEW250 M06/M07 A3016 RMK AO2 SLP215 T10561067

KCLE 111251Z 23011KT 6SM HZ OVC013 M06/M08 A3013 RMK AO2 SLP214 T10561083

KCLT 111252Z 00000KT 9SM FEW150 FEW250 M01/M03 A3022 RMK AO2 SLP239 T10111033

KCVG 111252Z 00000KT 3SM BCFG BR FEW180 SCT230 M08/M09 A3022 RMK AO2 SLP246 VIS N 21/2 I1000 T10781094

KDCA 111252Z 34005KT 10SM FEW160 FEW250 M02/M06 A3019 RMK AO2 SLP221 T10171061

KDEN 111253Z 16006KT 10SM SCT220 02/M18 A2999 RMK AO2 SLP141 T00171183

KDFW 111253Z 18006KT 10SM FEW250 02/M01 A3031 RMK AO2 SLP265 T00221011

KDTW 111312Z 21011KT 2SM HZ BKN010 OVC016 M03/M07 A3004 RMK AO2 TWR VIS 3 T10281067

KEWR 111251Z 03006KT 10SM FEW250 M02/M06 A3016 RMK AO2 SLP213 T10171061

KFLL 111253Z 33009KT 10SM FEW050 SCT250 11/08 A3024 RMK AO2 SLP241 T01110083

KIAD 111252Z 00000KT 5SM BR FEW250 M07/M07 A3017 RMK AO2 SLP221 T10671072

KIAH 111253Z 00000KT 10SM FEW250 02/02 A3042 RMK AO2 SLP301 T00220017

KJFK 111251Z 02006KT 10SM FEW025 FEW250 M02/M04 A3017 RMK AO2 SLP216 T10171044

KLAS 111256Z 22004KT 10SM FEW060 BKN100 OVC110 11/01 A3010 RMK AO2 SLP186 T01060006

KLAX 111253Z 10005KT 8SM FEW008 FEW012 SCT130 BKN200 12/10 A3000 RMK AO2 SLP157 T01170100

KLGA 111251Z 04005KT 10SM FEW250 M01/M06 A3016 RMK AO2 SLP213 T10061061

KMCO 111253Z 31010KT 10SM FEW017 07/05 A3028 RMK AO2 SLP252 T00720050

KMDW 111253Z 24008KT 5SM BR FEW250 M03/M06 A3006 RMK AO2 SLP194 T10331061

KMEM 111254Z 21004KT 6SM BR FEW012 M04/M06 A3038 RMK AO2 SLP289 FU FEW012 T10441056

KMIA 111253Z 33006KT 10SM FEW015 SCT300 12/10 A3025 RMK AO2 SLP245 T01220100

KMSP 111253Z 10003KT 7SM CLR M11/M11 A3001 RMK AO2 SLP177 I1000 T11061111

KORD 111251Z 23006KT 6SM BR FEW250 M03/M06 A3005 RMK AO2 SLP183 T10331056

KPDX 111253Z 13009KT 10SM OVC045 06/04 A3014 RMK AO2 RAE36 SLP206 P0001 T00560044

KPHL 111254Z 33004KT 10SM FEW270 M03/M07 A3017 RMK AO2 SLP216 T10281072

KPHX 111251Z 11005KT 10SM OVC200 15/02 A3000 RMK AO2 SLP151 T01500017

KPIT 111251Z 21007KT 9SM OVC014 M06/M08 A3013 RMK AO2 SLP230 BINOVC T10561078

KSAN 111251Z 08003KT 8SM SCT007 BKN200 14/11 A3002 RMK AO2 SLP165 T01440111

KSEA 111253Z 11006KT 7SM -RA OVC032 07/04 A2999 RMK AO2 SLP165 P0001 T00670044

KSFO 111256Z 00000KT 1/4SM R28R/1400V1600FT FG VV003 09/08 A3018 RMK AO2 SLP220 T00940083

KSLC 111307Z 35004KT 7SM SCT013 OVC015 00/M03 A3031 RMK AO2 T00001028

KSTL 111251Z 23006KT 10SM FEW250 M02/M07 A3022 RMK AO2 SLP245 T10221072

KTPA 111253Z 01007KT 10SM SCT040 09/06 A3031 RMK AO2 SLP262 T00940061